createdAt,value
2023-11-13T00:03:00.001Z,14.33
2023-11-13T00:06:07.088Z,11.10
2023-11-13T00:09:11.633Z,12.82
2023-11-13T00:12:18.789Z,11.38
2023-11-13T00:15:24.316Z,11.37
2023-11-13T00:18:28.319Z,10.77
2023-11-13T00:21:31.713Z,13.52
2023-11-13T00:24:37.174Z,14.35
2023-11-13T00:27:43.908Z,11.80
2023-11-13T00:30:58.306Z,12.70
2023-11-13T00:34:07.610Z,11.55
2023-11-13T00:37:16.365Z,12.30
2023-11-13T00:40:26.229Z,13.40
2023-11-13T00:43:29.603Z,11.60
2023-11-13T00:46:36.100Z,11.77
2023-11-13T00:49:50.010Z,11.65
2023-11-13T00:52:57.866Z,12.38
2023-11-13T00:56:05.583Z,13.60
2023-11-13T00:59:09.003Z,11.93
2023-11-13T01:02:15.549Z,15.60
2023-11-13T01:05:20.405Z,13.75
2023-11-13T01:08:26.598Z,14.27
2023-11-13T01:11:33.747Z,18.10
2023-11-13T01:14:37.217Z,15.93
2023-11-13T01:17:40.794Z,13.93
2023-11-13T01:20:45.758Z,14.38
2023-11-13T01:23:53.400Z,14.55
2023-11-13T01:26:56.788Z,15.27
2023-11-13T01:30:02.072Z,16.20
2023-11-13T01:33:07.769Z,14.82
2023-11-13T01:36:11.293Z,13.35
2023-11-13T01:39:14.744Z,14.33
2023-11-13T01:42:23.872Z,12.80
2023-11-13T01:45:27.306Z,13.88
2023-11-13T01:48:30.864Z,13.75
2023-11-13T01:51:35.104Z,14.32
2023-11-13T01:54:38.621Z,13.25
2023-11-13T01:57:42.586Z,13.75
2023-11-13T02:00:48.230Z,14.48
2023-11-13T02:03:54.061Z,14.18
2023-11-13T02:06:58.292Z,16.20
2023-11-13T02:10:02.185Z,15.27
2023-11-13T02:13:06.817Z,17.65
2023-11-13T02:16:13.654Z,19.77
2023-11-13T02:19:20.427Z,31.23
2023-11-13T02:22:23.906Z,28.70
2023-11-13T02:25:28.025Z,28.80
2023-11-13T02:28:31.575Z,28.40
2023-11-13T02:31:37.230Z,27.63
2023-11-13T02:34:40.732Z,23.27
2023-11-13T02:37:44.637Z,20.23
2023-11-13T02:40:48.265Z,24.02
2023-11-13T02:43:51.690Z,21.80
2023-11-13T02:46:56.554Z,19.50
2023-11-13T02:50:00.990Z,19.48
2023-11-13T02:53:04.479Z,17.33
2023-11-13T02:56:08.026Z,15.50
2023-11-13T02:59:31.501Z,16.53
2023-11-13T03:02:35.365Z,17.92
2023-11-13T03:05:39.812Z,16.45
2023-11-13T03:08:45.546Z,16.85
2023-11-13T03:11:48.948Z,15.43
2023-11-13T03:14:52.400Z,15.85
2023-11-13T03:17:55.785Z,16.42
2023-11-13T03:20:59.164Z,13.93
2023-11-13T03:24:02.582Z,17.58
2023-11-13T03:27:08.620Z,15.60
2023-11-13T03:30:12.369Z,14.98
2023-11-13T03:33:15.947Z,16.57
2023-11-13T03:36:19.807Z,16.83
2023-11-13T03:39:23.198Z,15.68
2023-11-13T03:42:26.631Z,15.30
2023-11-13T03:45:29.983Z,17.52
2023-11-13T03:48:33.340Z,16.40
2023-11-13T03:51:36.766Z,13.80
2023-11-13T03:54:40.227Z,16.95
2023-11-13T03:57:43.668Z,13.23
2023-11-13T04:00:47.060Z,17.20
2023-11-13T04:03:53.798Z,16.27
2023-11-13T04:06:57.595Z,16.77
2023-11-13T04:10:01.498Z,20.20
2023-11-13T04:13:04.913Z,18.15
2023-11-13T04:16:08.909Z,18.42
2023-11-13T04:19:12.809Z,17.98
2023-11-13T04:22:16.280Z,16.05
2023-11-13T04:25:23.370Z,12.20
2023-11-13T04:28:32.237Z,11.95
2023-11-13T04:31:35.735Z,10.70
2023-11-13T04:34:39.160Z,14.88
2023-11-13T04:37:42.535Z,13.43
2023-11-13T04:40:48.078Z,11.95
2023-11-13T04:43:51.444Z,15.00
2023-11-13T04:46:58.008Z,11.68
2023-11-13T04:50:01.903Z,10.90
2023-11-13T04:53:05.373Z,11.25
2023-11-13T04:56:12.188Z,12.20
2023-11-13T04:59:15.812Z,11.77
2023-11-13T05:02:20.153Z,12.95
2023-11-13T05:05:27.915Z,14.75
2023-11-13T05:08:34.168Z,13.80
2023-11-13T05:11:38.020Z,13.85
2023-11-13T05:14:44.706Z,13.40
2023-11-13T05:17:49.085Z,17.45
2023-11-13T05:20:53.161Z,12.88
2023-11-13T05:23:56.678Z,12.20
2023-11-13T05:27:03.155Z,15.60
2023-11-13T05:30:09.158Z,16.95
2023-11-13T05:33:13.055Z,18.05
2023-11-13T05:36:16.582Z,16.38
2023-11-13T05:39:23.830Z,26.92
2023-11-13T05:42:27.177Z,23.57
2023-11-13T05:45:30.590Z,15.15
2023-11-13T05:48:34.486Z,17.73
2023-11-13T05:51:40.568Z,16.10
2023-11-13T05:54:46.932Z,14.35
2023-11-13T05:57:53.806Z,14.15
2023-11-13T06:00:58.986Z,14.48
2023-11-13T06:04:03.287Z,15.00
2023-11-13T06:07:07.482Z,15.27
2023-11-13T06:10:15.885Z,15.07
2023-11-13T06:13:19.487Z,12.60
2023-11-13T06:16:25.660Z,14.25
2023-11-13T06:19:32.321Z,15.48
2023-11-13T06:22:35.792Z,15.77
2023-11-13T06:25:46.184Z,14.65
2023-11-13T06:28:50.296Z,14.07
2023-11-13T06:31:58.244Z,15.35
2023-11-13T06:35:13.178Z,14.50
2023-11-13T06:38:20.151Z,14.37
2023-11-13T06:41:24.668Z,15.32
2023-11-13T06:44:28.128Z,18.15
2023-11-13T06:47:31.557Z,34.60
2023-11-13T06:50:38.112Z,47.92
2023-11-13T06:53:44.395Z,21.63
2023-11-13T06:56:48.280Z,15.45
2023-11-13T06:59:51.782Z,14.35
2023-11-13T07:03:01.359Z,14.77
2023-11-13T07:06:05.244Z,12.80
2023-11-13T07:09:15.925Z,12.33
2023-11-13T07:12:19.386Z,16.17
2023-11-13T07:15:25.466Z,16.45
2023-11-13T07:18:28.885Z,16.05
2023-11-13T07:21:33.812Z,13.10
2023-11-13T07:24:39.294Z,14.27
2023-11-13T07:27:42.769Z,16.10
2023-11-13T07:30:48.964Z,14.85
2023-11-13T07:33:55.698Z,15.57
2023-11-13T07:37:01.477Z,13.43
2023-11-13T07:40:10.109Z,12.67
2023-11-13T07:43:13.595Z,12.07
2023-11-13T07:46:19.823Z,12.60
2023-11-13T07:49:23.371Z,12.88
2023-11-13T07:52:30.494Z,9.77
2023-11-13T07:55:34.406Z,10.27
2023-11-13T07:58:39.100Z,10.50
2023-11-13T08:01:42.739Z,12.95
2023-11-13T08:04:46.431Z,12.32
2023-11-13T08:07:50.038Z,12.38
2023-11-13T08:10:54.972Z,16.13
2023-11-13T08:14:04.388Z,12.75
2023-11-13T08:17:10.781Z,12.63
2023-11-13T08:20:18.655Z,12.38
2023-11-13T08:23:28.065Z,12.90
2023-11-13T08:26:33.870Z,13.63
2023-11-13T08:29:38.346Z,14.60
2023-11-13T08:32:42.728Z,13.15
2023-11-13T08:35:49.371Z,14.88
2023-11-13T08:38:53.859Z,14.70
2023-11-13T08:41:57.766Z,12.37
2023-11-13T08:45:02.253Z,12.48
2023-11-13T08:48:06.614Z,12.52
2023-11-13T08:51:10.051Z,16.25
2023-11-13T08:54:14.420Z,14.40
2023-11-13T08:57:18.150Z,14.03
2023-11-13T09:00:23.371Z,13.18
2023-11-13T09:03:31.166Z,13.32
2023-11-13T09:06:37.426Z,14.20
2023-11-13T09:10:10.015Z,12.68
2023-11-13T09:13:14.615Z,14.97
2023-11-13T09:16:21.474Z,14.13
2023-11-13T09:19:27.346Z,13.30
2023-11-13T09:22:32.694Z,12.45
2023-11-13T09:25:36.355Z,15.48
2023-11-13T09:28:40.265Z,11.40
2023-11-13T09:31:43.702Z,15.10
2023-11-13T09:34:49.176Z,11.63
2023-11-13T09:37:54.196Z,12.05
2023-11-13T09:41:00.667Z,12.32
2023-11-13T09:44:04.918Z,10.70
2023-11-13T09:47:13.322Z,15.05
2023-11-13T09:50:18.328Z,12.15
2023-11-13T09:53:44.054Z,11.63
2023-11-13T09:56:47.912Z,9.75
2023-11-13T09:59:53.300Z,9.27
2023-11-13T10:02:57.273Z,8.73
2023-11-13T10:06:02.958Z,8.27
2023-11-13T10:09:06.740Z,10.00
2023-11-13T10:12:33.382Z,9.57
2023-11-13T10:15:42.795Z,8.30
2023-11-13T10:18:47.389Z,7.63
2023-11-13T10:21:52.821Z,7.13
2023-11-13T10:24:59.388Z,8.25
2023-11-13T10:28:03.174Z,9.15
2023-11-13T10:31:14.474Z,7.67
2023-11-13T10:34:18.295Z,8.18
2023-11-13T10:37:22.200Z,9.32
2023-11-13T10:40:29.618Z,7.28
2023-11-13T10:43:41.657Z,8.35
2023-11-13T10:46:46.152Z,7.37
2023-11-13T10:49:52.254Z,7.03
2023-11-13T10:53:00.465Z,5.97
2023-11-13T10:56:04.424Z,5.93
2023-11-13T10:59:11.628Z,6.57
2023-11-13T11:02:31.780Z,9.23
2023-11-13T11:05:38.039Z,7.90
2023-11-13T11:08:41.958Z,5.78
2023-11-13T11:11:47.817Z,5.63
2023-11-13T11:15:15.410Z,6.95
2023-11-13T11:18:41.493Z,15.20
2023-11-13T11:22:11.727Z,13.80
2023-11-13T11:25:47.765Z,7.88
2023-11-13T11:28:54.668Z,5.43
2023-11-13T11:31:58.194Z,5.78
2023-11-13T11:35:04.237Z,6.33
2023-11-13T11:38:28.454Z,5.78
2023-11-13T11:41:43.256Z,6.03
2023-11-13T11:44:58.280Z,7.65
2023-11-13T11:48:06.565Z,6.40
2023-11-13T11:51:25.059Z,5.83
2023-11-13T11:54:30.807Z,7.80
2023-11-13T11:57:34.231Z,6.90
2023-11-13T12:00:37.970Z,6.22
2023-11-13T12:03:41.534Z,6.10
2023-11-13T12:06:50.208Z,6.23
2023-11-13T12:09:55.044Z,7.10
2023-11-13T12:12:59.704Z,7.38
2023-11-13T12:16:04.461Z,6.85
2023-11-13T12:19:08.020Z,7.45
2023-11-13T12:22:12.042Z,5.87
2023-11-13T12:25:15.820Z,6.80
2023-11-13T12:28:39.279Z,5.55
2023-11-13T12:31:43.884Z,6.03
2023-11-13T12:34:48.675Z,6.43
2023-11-13T12:37:53.673Z,6.20
2023-11-13T12:40:57.405Z,5.65
2023-11-13T12:44:02.841Z,5.85
2023-11-13T12:47:09.484Z,5.15
2023-11-13T12:50:20.454Z,6.68
2023-11-13T12:53:24.226Z,5.80
2023-11-13T12:56:30.048Z,6.78
2023-11-13T12:59:33.499Z,11.30
2023-11-13T13:02:37.391Z,10.68
2023-11-13T13:05:43.717Z,28.40
2023-11-13T13:08:58.204Z,10.53
2023-11-13T13:12:03.020Z,30.98
2023-11-13T13:15:18.966Z,9.70
2023-11-13T13:18:25.928Z,5.70
2023-11-13T13:21:32.900Z,6.30
2023-11-13T13:24:36.595Z,6.40
2023-11-13T13:27:41.093Z,6.78
2023-11-13T13:30:45.239Z,6.53
2023-11-13T13:33:51.361Z,5.88
2023-11-13T13:36:55.761Z,5.80
2023-11-13T13:39:59.756Z,8.43
2023-11-13T13:43:03.383Z,8.35
2023-11-13T13:46:14.162Z,6.38
2023-11-13T13:49:18.129Z,6.82
2023-11-13T13:52:24.497Z,6.03
2023-11-13T13:55:34.715Z,5.30
2023-11-13T13:58:39.336Z,5.65
2023-11-13T14:01:44.072Z,4.65
2023-11-13T14:04:47.600Z,5.70
2023-11-13T14:07:51.542Z,5.00
2023-11-13T14:10:55.897Z,6.33
2023-11-13T14:13:59.408Z,6.00
2023-11-13T14:17:04.753Z,5.00
2023-11-13T14:20:18.495Z,5.28
2023-11-13T14:23:24.647Z,6.20
2023-11-13T14:26:28.157Z,5.17
2023-11-13T14:29:34.912Z,7.15
2023-11-13T14:32:38.385Z,11.27
2023-11-13T14:35:43.218Z,10.15
2023-11-13T14:38:46.752Z,7.32
2023-11-13T14:41:51.270Z,6.07
2023-11-13T14:44:56.597Z,5.95
2023-11-13T14:48:00.586Z,7.68
2023-11-13T14:51:05.343Z,6.93
2023-11-13T14:54:09.066Z,5.95
2023-11-13T14:57:12.517Z,9.30
2023-11-13T15:00:18.314Z,6.60
2023-11-13T15:03:22.076Z,7.38
2023-11-13T15:06:25.872Z,7.05
2023-11-13T15:09:30.949Z,7.47
2023-11-13T15:12:34.756Z,7.23
2023-11-13T15:15:38.264Z,9.13
2023-11-13T15:18:47.935Z,6.20
2023-11-13T15:21:53.970Z,57.72
2023-11-13T15:24:57.386Z,107.30
2023-11-13T15:28:00.957Z,54.80
2023-11-13T15:31:04.485Z,14.63
2023-11-13T15:34:17.961Z,9.93
2023-11-13T15:37:25.300Z,9.52
2023-11-13T15:40:29.560Z,11.57
2023-11-13T15:43:33.185Z,24.73
2023-11-13T15:46:36.731Z,22.27
2023-11-13T15:49:40.724Z,43.17
2023-11-13T15:52:44.761Z,83.50
2023-11-13T15:55:48.298Z,80.97
2023-11-13T15:58:51.781Z,51.43
2023-11-13T16:02:03.592Z,67.38
2023-11-13T16:05:10.380Z,83.15
2023-11-13T16:08:18.492Z,66.45
2023-11-13T16:11:22.067Z,23.15
2023-11-13T16:14:25.548Z,26.47
2023-11-13T16:17:31.201Z,25.33
2023-11-13T16:20:34.968Z,26.52
2023-11-13T16:23:40.906Z,20.20
2023-11-13T16:26:45.115Z,15.25
2023-11-13T16:29:48.530Z,15.77
2023-11-13T16:32:51.990Z,26.35
2023-11-13T16:35:57.209Z,30.92
2023-11-13T16:39:01.162Z,33.50
2023-11-13T16:42:04.781Z,47.97
2023-11-13T16:45:13.507Z,40.20
2023-11-13T16:48:17.455Z,34.60
2023-11-13T16:51:21.011Z,31.73
2023-11-13T16:54:27.516Z,35.13
2023-11-13T16:57:32.481Z,34.70
2023-11-13T17:00:37.218Z,24.70
2023-11-13T17:03:40.746Z,14.05
2023-11-13T17:06:45.736Z,16.20
2023-11-13T17:09:49.156Z,15.20
2023-11-13T17:12:53.336Z,13.65
2023-11-13T17:15:56.772Z,18.33
2023-11-13T17:19:00.242Z,20.05
2023-11-13T17:22:03.724Z,19.77
2023-11-13T17:25:09.651Z,21.10
2023-11-13T17:28:13.152Z,20.17
2023-11-13T17:31:16.687Z,23.73
2023-11-13T17:34:21.258Z,49.22
2023-11-13T17:37:24.731Z,50.80
2023-11-13T17:40:28.271Z,41.35
2023-11-13T17:43:32.415Z,34.75
2023-11-13T17:46:36.151Z,32.87
2023-11-13T17:49:39.757Z,32.88
2023-11-13T17:52:43.601Z,25.33
2023-11-13T17:55:47.154Z,26.33
2023-11-13T17:58:50.630Z,36.55
2023-11-13T18:01:54.297Z,36.90
2023-11-13T18:04:57.794Z,34.40
2023-11-13T18:08:01.298Z,32.83
2023-11-13T18:11:06.911Z,26.42
2023-11-13T18:14:10.557Z,25.05
2023-11-13T18:17:14.092Z,25.80
2023-11-13T18:20:21.055Z,29.73
2023-11-13T18:23:24.467Z,27.83
2023-11-13T18:26:28.346Z,30.05
2023-11-13T18:29:32.157Z,28.05
2023-11-13T18:32:35.825Z,25.63
2023-11-13T18:35:39.176Z,22.92
2023-11-13T18:38:43.522Z,19.92
2023-11-13T18:41:46.951Z,17.17
2023-11-13T18:44:50.421Z,19.58
2023-11-13T18:47:53.890Z,53.80
2023-11-13T18:50:59.532Z,32.40
2023-11-13T18:54:02.878Z,25.92
2023-11-13T18:57:06.321Z,27.10
2023-11-13T19:00:11.977Z,28.65
2023-11-13T19:03:15.604Z,29.40
2023-11-13T19:06:19.504Z,28.67
2023-11-13T19:09:23.135Z,28.92
2023-11-13T19:12:26.749Z,27.08
2023-11-13T19:15:30.382Z,26.67
2023-11-13T19:18:34.204Z,21.30
2023-11-13T19:21:37.839Z,23.67
2023-11-13T19:24:41.339Z,35.65
2023-11-13T19:27:45.564Z,29.42
2023-11-13T19:30:49.109Z,24.88
2023-11-13T19:33:54.622Z,23.43
2023-11-13T19:36:58.392Z,33.33
2023-11-13T19:40:02.245Z,26.48
2023-11-13T19:43:07.166Z,35.30
2023-11-13T19:46:11.557Z,52.50
2023-11-13T19:49:15.288Z,29.37
2023-11-13T19:52:20.077Z,24.50
2023-11-13T19:55:25.613Z,25.17
2023-11-13T19:58:29.078Z,26.73
2023-11-13T20:01:33.051Z,27.55
2023-11-13T20:04:36.872Z,26.50
2023-11-13T20:07:40.658Z,24.48
2023-11-13T20:10:44.147Z,18.42
2023-11-13T20:13:47.703Z,18.90
2023-11-13T20:16:51.662Z,19.40
2023-11-13T20:19:56.705Z,17.90
2023-11-13T20:23:01.219Z,21.63
2023-11-13T20:26:07.232Z,18.10
2023-11-13T20:29:11.514Z,21.77
2023-11-13T20:32:15.015Z,16.85
2023-11-13T20:35:18.841Z,18.87
2023-11-13T20:38:22.707Z,23.13
2023-11-13T20:41:27.969Z,29.48
2023-11-13T20:44:31.586Z,26.50
2023-11-13T20:47:37.552Z,24.23
2023-11-13T20:50:41.420Z,20.20
2023-11-13T20:53:44.826Z,19.20
2023-11-13T20:56:48.763Z,19.73
2023-11-13T20:59:53.417Z,20.55
2023-11-13T21:02:57.172Z,18.77
2023-11-13T21:06:07.465Z,18.77
2023-11-13T21:09:11.988Z,19.20
2023-11-13T21:12:15.440Z,19.30
2023-11-13T21:15:18.973Z,18.25
2023-11-13T21:18:22.662Z,20.42
2023-11-13T21:21:29.478Z,21.87
2023-11-13T21:24:34.143Z,21.90
2023-11-13T21:27:39.700Z,19.85
2023-11-13T21:30:44.255Z,20.23
2023-11-13T21:33:49.081Z,17.13
2023-11-13T21:36:55.019Z,25.53
2023-11-13T21:39:58.486Z,23.80
2023-11-13T21:43:01.878Z,21.75
2023-11-13T21:46:07.021Z,22.75
2023-11-13T21:49:10.403Z,21.77
2023-11-13T21:52:14.015Z,21.30
2023-11-13T21:55:17.489Z,21.42
2023-11-13T21:58:21.260Z,24.63
2023-11-13T22:01:24.891Z,22.38
2023-11-13T22:04:28.619Z,21.85
2023-11-13T22:07:32.063Z,19.70
2023-11-13T22:10:36.628Z,20.25
2023-11-13T22:13:41.552Z,20.63
2023-11-13T22:16:46.489Z,22.90
2023-11-13T22:19:52.267Z,21.83
2023-11-13T22:22:59.601Z,21.17
2023-11-13T22:26:05.215Z,22.80
2023-11-13T22:29:10.112Z,21.55
2023-11-13T22:32:13.734Z,19.70
2023-11-13T22:35:22.101Z,26.50
2023-11-13T22:38:25.595Z,23.30
2023-11-13T22:41:30.613Z,22.45
2023-11-13T22:44:34.647Z,21.55
2023-11-13T22:47:38.215Z,23.08
2023-11-13T22:50:41.719Z,22.80
2023-11-13T22:53:45.324Z,22.13
2023-11-13T22:56:48.702Z,24.95
2023-11-13T22:59:52.201Z,21.75
2023-11-13T23:02:56.891Z,23.13
2023-11-13T23:06:00.871Z,20.83
2023-11-13T23:09:07.089Z,21.87
2023-11-13T23:12:21.139Z,23.08
2023-11-13T23:15:29.849Z,24.00
2023-11-13T23:18:58.829Z,26.67
2023-11-13T23:22:12.603Z,23.92
2023-11-13T23:25:34.554Z,25.43
2023-11-13T23:28:52.118Z,25.02
2023-11-13T23:32:03.004Z,26.23
2023-11-13T23:35:15.796Z,26.83
2023-11-13T23:38:19.568Z,26.63
2023-11-13T23:41:28.010Z,24.90
2023-11-13T23:44:31.360Z,28.02
2023-11-13T23:47:39.548Z,28.60
2023-11-13T23:50:49.016Z,28.25
2023-11-13T23:53:53.952Z,27.08
2023-11-13T23:56:57.881Z,25.87
